Terminal Aerodrome Forecast
Issued by NWS Sioux Falls, SD

Home | Current Version | Previous Version | Graphics & Text | Print | Product List | Glossary Off
Versions: 1 2 3 4 5 6 7 8 9 10 11 12 13 14 15 16 17 18 19 20 21 22 23 24 25 26

959
FTUS43 KFSD 240540
TAFSUX
TAF
KSUX 240540Z 2406/2506 28007KT P6SM FEW120
     FM240800 31006KT P6SM FEW200
     FM241500 35006KT P6SM FEW200
     FM242300 03006KT P6SM SCT150
     FM250500 00000KT P6SM FEW140=

USA.gov is the U.S. government's official web portal to all federal, state and local government web resources and services.